sensor_id;sensor_type;location;lat;lon;timestamp;temperature;humidity
1476;DHT22;730;48.870;12.542;2023-07-09T00:01:20;21.30;1.00
1476;DHT22;730;48.870;12.542;2023-07-09T00:03:46;21.20;1.00
1476;DHT22;730;48.870;12.542;2023-07-09T00:06:20;21.20;1.00
1476;DHT22;730;48.870;12.542;2023-07-09T00:08:46;21.10;1.00
1476;DHT22;730;48.870;12.542;2023-07-09T00:11:14;21.10;1.00
1476;DHT22;730;48.870;12.542;2023-07-09T00:13:42;21.10;1.00
1476;DHT22;730;48.870;12.542;2023-07-09T00:16:17;21.00;1.00
1476;DHT22;730;48.870;12.542;2023-07-09T00:18:44;20.90;1.00
1476;DHT22;730;48.870;12.542;2023-07-09T00:21:10;20.90;1.00
1476;DHT22;730;48.870;12.542;2023-07-09T00:23:36;20.80;1.00
1476;DHT22;730;48.870;12.542;2023-07-09T00:26:11;20.70;1.00
1476;DHT22;730;48.870;12.542;2023-07-09T00:28:40;20.70;1.00
1476;DHT22;730;48.870;12.542;2023-07-09T00:31:11;20.70;1.00
1476;DHT22;730;48.870;12.542;2023-07-09T00:33:39;20.60;1.00
1476;DHT22;730;48.870;12.542;2023-07-09T00:36:30;20.60;1.00
1476;DHT22;730;48.870;12.542;2023-07-09T00:39:00;20.50;1.00
1476;DHT22;730;48.870;12.542;2023-07-09T00:41:35;20.40;1.00
1476;DHT22;730;48.870;12.542;2023-07-09T00:44:28;20.40;1.00
1476;DHT22;730;48.870;12.542;2023-07-09T00:49:32;20.20;1.00
1476;DHT22;730;48.870;12.542;2023-07-09T00:52:14;20.10;1.00
1476;DHT22;730;48.870;12.542;2023-07-09T00:54:46;19.80;1.00
1476;DHT22;730;48.870;12.542;2023-07-09T00:57:17;19.60;1.00
1476;DHT22;730;48.870;12.542;2023-07-09T00:59:53;19.50;1.00
1476;DHT22;730;48.870;12.542;2023-07-09T01:02:21;19.50;1.00
1476;DHT22;730;48.870;12.542;2023-07-09T01:04:55;19.40;1.00
1476;DHT22;730;48.870;12.542;2023-07-09T01:07:27;19.40;1.00
1476;DHT22;730;48.870;12.542;2023-07-09T01:09:54;19.30;1.00
1476;DHT22;730;48.870;12.542;2023-07-09T01:12:23;19.30;1.00
1476;DHT22;730;48.870;12.542;2023-07-09T01:14:53;19.20;1.00
1476;DHT22;730;48.870;12.542;2023-07-09T01:17:20;19.20;1.00
1476;DHT22;730;48.870;12.542;2023-07-09T01:19:52;19.20;1.00
1476;DHT22;730;48.870;12.542;2023-07-09T01:22:20;19.20;1.00
1476;DHT22;730;48.870;12.542;2023-07-09T01:25:00;19.20;1.00
1476;DHT22;730;48.870;12.542;2023-07-09T01:27:33;19.20;1.00
1476;DHT22;730;48.870;12.542;2023-07-09T01:30:01;19.20;1.00
1476;DHT22;730;48.870;12.542;2023-07-09T01:32:30;19.20;1.00
1476;DHT22;730;48.870;12.542;2023-07-09T01:34:58;19.20;1.00
1476;DHT22;730;48.870;12.542;2023-07-09T01:37:32;19.20;1.00
1476;DHT22;730;48.870;12.542;2023-07-09T01:39:59;19.20;1.00
1476;DHT22;730;48.870;12.542;2023-07-09T01:42:25;19.10;1.00
1476;DHT22;730;48.870;12.542;2023-07-09T01:44:55;19.10;1.00
1476;DHT22;730;48.870;12.542;2023-07-09T01:47:22;19.10;1.00
1476;DHT22;730;48.870;12.542;2023-07-09T01:49:50;19.10;1.00
1476;DHT22;730;48.870;12.542;2023-07-09T01:52:17;19.00;1.00
1476;DHT22;730;48.870;12.542;2023-07-09T01:54:45;19.00;1.00
1476;DHT22;730;48.870;12.542;2023-07-09T01:57:29;19.00;1.00
1476;DHT22;730;48.870;12.542;2023-07-09T02:00:07;19.00;1.00
1476;DHT22;730;48.870;12.542;2023-07-09T02:02:37;18.90;1.00
1476;DHT22;730;48.870;12.542;2023-07-09T02:05:20;18.90;1.00
1476;DHT22;730;48.870;12.542;2023-07-09T02:07:47;18.90;1.00
1476;DHT22;730;48.870;12.542;2023-07-09T02:10:15;18.90;1.00
1476;DHT22;730;48.870;12.542;2023-07-09T02:12:41;18.80;1.00
1476;DHT22;730;48.870;12.542;2023-07-09T02:18:43;18.80;1.00
1476;DHT22;730;48.870;12.542;2023-07-09T02:21:09;18.80;1.00
1476;DHT22;730;48.870;12.542;2023-07-09T02:23:35;18.80;1.00
1476;DHT22;730;48.870;12.542;2023-07-09T02:26:01;18.80;1.00
1476;DHT22;730;48.870;12.542;2023-07-09T02:28:27;18.80;1.00
1476;DHT22;730;48.870;12.542;2023-07-09T02:30:54;18.80;1.00
1476;DHT22;730;48.870;12.542;2023-07-09T02:33:21;18.80;1.00
1476;DHT22;730;48.870;12.542;2023-07-09T02:35:49;18.80;1.00
1476;DHT22;730;48.870;12.542;2023-07-09T02:38:16;18.70;1.00
1476;DHT22;730;48.870;12.542;2023-07-09T02:40:42;18.70;1.00
1476;DHT22;730;48.870;12.542;2023-07-09T02:43:17;18.70;1.00
1476;DHT22;730;48.870;12.542;2023-07-09T02:45:43;18.70;1.00
1476;DHT22;730;48.870;12.542;2023-07-09T02:48:09;18.70;1.00
1476;DHT22;730;48.870;12.542;2023-07-09T02:50:35;18.60;1.00
1476;DHT22;730;48.870;12.542;2023-07-09T02:53:01;18.60;1.00
1476;DHT22;730;48.870;12.542;2023-07-09T02:55:27;18.60;1.00
1476;DHT22;730;48.870;12.542;2023-07-09T02:57:53;18.60;1.00
1476;DHT22;730;48.870;12.542;2023-07-09T03:00:19;18.60;1.00
1476;DHT22;730;48.870;12.542;2023-07-09T03:02:45;18.50;1.00
1476;DHT22;730;48.870;12.542;2023-07-09T03:05:13;18.40;1.00
1476;DHT22;730;48.870;12.542;2023-07-09T03:07:39;18.40;1.00
1476;DHT22;730;48.870;12.542;2023-07-09T03:10:06;18.40;1.00
1476;DHT22;730;48.870;12.542;2023-07-09T03:12:32;18.30;1.00
1476;DHT22;730;48.870;12.542;2023-07-09T03:14:58;18.30;1.00
1476;DHT22;730;48.870;12.542;2023-07-09T03:17:24;18.30;1.00
1476;DHT22;730;48.870;12.542;2023-07-09T03:19:50;18.30;1.00
1476;DHT22;730;48.870;12.542;2023-07-09T03:22:16;18.30;1.00
1476;DHT22;730;48.870;12.542;2023-07-09T03:24:43;18.20;1.00
1476;DHT22;730;48.870;12.542;2023-07-09T03:27:09;18.20;1.00
1476;DHT22;730;48.870;12.542;2023-07-09T03:29:35;18.20;1.00
1476;DHT22;730;48.870;12.542;2023-07-09T03:32:02;18.20;1.00
1476;DHT22;730;48.870;12.542;2023-07-09T03:34:28;18.10;1.00
1476;DHT22;730;48.870;12.542;2023-07-09T03:36:54;18.10;1.00
1476;DHT22;730;48.870;12.542;2023-07-09T03:39:22;18.10;1.00
1476;DHT22;730;48.870;12.542;2023-07-09T03:41:48;18.00;1.00
1476;DHT22;730;48.870;12.542;2023-07-09T03:44:14;18.10;1.00
1476;DHT22;730;48.870;12.542;2023-07-09T03:46:40;18.00;1.00
1476;DHT22;730;48.870;12.542;2023-07-09T03:49:06;18.00;1.00
1476;DHT22;730;48.870;12.542;2023-07-09T03:51:32;18.00;1.00
1476;DHT22;730;48.870;12.542;2023-07-09T03:53:59;17.90;1.00
1476;DHT22;730;48.870;12.542;2023-07-09T03:56:25;17.90;1.00
1476;DHT22;730;48.870;12.542;2023-07-09T03:58:51;17.90;1.00
1476;DHT22;730;48.870;12.542;2023-07-09T04:01:17;17.90;1.00
1476;DHT22;730;48.870;12.542;2023-07-09T04:03:43;17.80;1.00
1476;DHT22;730;48.870;12.542;2023-07-09T04:06:09;17.80;1.00
1476;DHT22;730;48.870;12.542;2023-07-09T04:08:36;17.80;1.00
1476;DHT22;730;48.870;12.542;2023-07-09T04:11:03;17.70;1.00
1476;DHT22;730;48.870;12.542;2023-07-09T04:13:29;17.70;1.00
1476;DHT22;730;48.870;12.542;2023-07-09T04:15:56;17.70;1.00
1476;DHT22;730;48.870;12.542;2023-07-09T04:18:22;17.80;1.00
1476;DHT22;730;48.870;12.542;2023-07-09T04:20:49;17.80;1.00
1476;DHT22;730;48.870;12.542;2023-07-09T04:23:16;17.80;1.00
1476;DHT22;730;48.870;12.542;2023-07-09T04:25:43;17.90;1.00
1476;DHT22;730;48.870;12.542;2023-07-09T04:28:09;17.90;1.00
1476;DHT22;730;48.870;12.542;2023-07-09T04:30:37;17.90;1.00
1476;DHT22;730;48.870;12.542;2023-07-09T04:33:03;18.00;1.00
1476;DHT22;730;48.870;12.542;2023-07-09T04:35:29;18.00;1.00
1476;DHT22;730;48.870;12.542;2023-07-09T04:37:55;18.10;1.00
1476;DHT22;730;48.870;12.542;2023-07-09T04:40:22;18.10;1.00
1476;DHT22;730;48.870;12.542;2023-07-09T04:42:48;18.10;1.00
1476;DHT22;730;48.870;12.542;2023-07-09T04:45:14;18.10;1.00
1476;DHT22;730;48.870;12.542;2023-07-09T04:47:40;18.20;1.00
1476;DHT22;730;48.870;12.542;2023-07-09T04:50:11;18.20;1.00
1476;DHT22;730;48.870;12.542;2023-07-09T04:52:37;18.20;1.00
1476;DHT22;730;48.870;12.542;2023-07-09T04:55:03;18.30;1.00
1476;DHT22;730;48.870;12.542;2023-07-09T04:57:30;18.30;1.00
1476;DHT22;730;48.870;12.542;2023-07-09T04:59:56;18.40;1.00
1476;DHT22;730;48.870;12.542;2023-07-09T05:02:23;18.40;1.00
1476;DHT22;730;48.870;12.542;2023-07-09T05:04:49;18.50;1.00
1476;DHT22;730;48.870;12.542;2023-07-09T05:07:16;18.60;1.00
1476;DHT22;730;48.870;12.542;2023-07-09T05:09:43;18.70;1.00
1476;DHT22;730;48.870;12.542;2023-07-09T05:12:10;18.70;1.00
1476;DHT22;730;48.870;12.542;2023-07-09T05:14:36;18.80;1.00
1476;DHT22;730;48.870;12.542;2023-07-09T05:17:02;19.00;1.00
1476;DHT22;730;48.870;12.542;2023-07-09T05:19:30;19.10;1.00
1476;DHT22;730;48.870;12.542;2023-07-09T05:21:56;19.30;1.00
1476;DHT22;730;48.870;12.542;2023-07-09T05:24:22;19.60;1.00
1476;DHT22;730;48.870;12.542;2023-07-09T05:26:48;19.80;1.00
1476;DHT22;730;48.870;12.542;2023-07-09T05:29:14;20.00;1.00
1476;DHT22;730;48.870;12.542;2023-07-09T05:31:41;20.40;1.00
1476;DHT22;730;48.870;12.542;2023-07-09T05:34:08;20.60;1.00
1476;DHT22;730;48.870;12.542;2023-07-09T05:36:34;20.90;1.00
1476;DHT22;730;48.870;12.542;2023-07-09T05:39:00;21.20;1.00
1476;DHT22;730;48.870;12.542;2023-07-09T05:41:27;21.50;1.00
1476;DHT22;730;48.870;12.542;2023-07-09T05:43:56;21.80;1.00
1476;DHT22;730;48.870;12.542;2023-07-09T05:46:22;22.10;1.00
1476;DHT22;730;48.870;12.542;2023-07-09T05:48:49;22.40;1.00
1476;DHT22;730;48.870;12.542;2023-07-09T05:51:15;22.70;1.00
1476;DHT22;730;48.870;12.542;2023-07-09T05:53:41;23.00;1.00
1476;DHT22;730;48.870;12.542;2023-07-09T05:56:12;23.40;1.00
1476;DHT22;730;48.870;12.542;2023-07-09T05:58:38;23.70;1.00
1476;DHT22;730;48.870;12.542;2023-07-09T06:01:04;24.00;1.00
1476;DHT22;730;48.870;12.542;2023-07-09T06:03:31;24.30;1.00
1476;DHT22;730;48.870;12.542;2023-07-09T06:05:57;24.60;1.00
1476;DHT22;730;48.870;12.542;2023-07-09T06:08:24;24.90;1.00
1476;DHT22;730;48.870;12.542;2023-07-09T06:10:56;25.20;1.00
1476;DHT22;730;48.870;12.542;2023-07-09T06:13:24;25.60;1.00
1476;DHT22;730;48.870;12.542;2023-07-09T06:15:51;25.90;1.00
1476;DHT22;730;48.870;12.542;2023-07-09T06:18:19;26.20;1.00
1476;DHT22;730;48.870;12.542;2023-07-09T06:21:07;26.60;1.00
1476;DHT22;730;48.870;12.542;2023-07-09T06:23:35;26.90;1.00
1476;DHT22;730;48.870;12.542;2023-07-09T06:26:01;27.10;1.00
1476;DHT22;730;48.870;12.542;2023-07-09T06:28:28;27.40;1.00
1476;DHT22;730;48.870;12.542;2023-07-09T06:30:57;27.60;1.00
1476;DHT22;730;48.870;12.542;2023-07-09T06:33:25;27.90;1.00
1476;DHT22;730;48.870;12.542;2023-07-09T06:36:01;28.10;1.00
1476;DHT22;730;48.870;12.542;2023-07-09T06:38:28;28.30;1.00
1476;DHT22;730;48.870;12.542;2023-07-09T06:40:56;28.60;1.00
1476;DHT22;730;48.870;12.542;2023-07-09T06:43:24;28.70;1.00
1476;DHT22;730;48.870;12.542;2023-07-09T06:45:53;28.90;1.00
1476;DHT22;730;48.870;12.542;2023-07-09T06:48:20;29.00;1.00
1476;DHT22;730;48.870;12.542;2023-07-09T06:50:47;29.10;1.00
1476;DHT22;730;48.870;12.542;2023-07-09T06:53:17;29.20;1.00
1476;DHT22;730;48.870;12.542;2023-07-09T06:55:43;29.30;1.00
1476;DHT22;730;48.870;12.542;2023-07-09T06:58:09;29.50;1.00
1476;DHT22;730;48.870;12.542;2023-07-09T07:00:36;29.70;1.00
1476;DHT22;730;48.870;12.542;2023-07-09T07:03:04;29.80;1.00
1476;DHT22;730;48.870;12.542;2023-07-09T07:05:31;29.90;1.00
1476;DHT22;730;48.870;12.542;2023-07-09T07:07:57;30.10;1.00
1476;DHT22;730;48.870;12.542;2023-07-09T07:10:24;30.30;1.00
1476;DHT22;730;48.870;12.542;2023-07-09T07:12:50;30.40;1.00
1476;DHT22;730;48.870;12.542;2023-07-09T07:15:17;30.60;1.00
1476;DHT22;730;48.870;12.542;2023-07-09T07:17:44;30.80;1.00
1476;DHT22;730;48.870;12.542;2023-07-09T07:20:12;31.10;1.00
1476;DHT22;730;48.870;12.542;2023-07-09T07:22:39;31.20;1.00
1476;DHT22;730;48.870;12.542;2023-07-09T07:25:06;31.30;1.00
1476;DHT22;730;48.870;12.542;2023-07-09T07:27:34;31.40;1.00
1476;DHT22;730;48.870;12.542;2023-07-09T07:30:00;31.50;1.00
1476;DHT22;730;48.870;12.542;2023-07-09T07:32:30;31.60;1.00
1476;DHT22;730;48.870;12.542;2023-07-09T07:34:56;31.50;1.00
1476;DHT22;730;48.870;12.542;2023-07-09T07:37:22;31.60;1.00
1476;DHT22;730;48.870;12.542;2023-07-09T07:39:48;31.70;1.00
1476;DHT22;730;48.870;12.542;2023-07-09T07:42:14;31.70;1.00
1476;DHT22;730;48.870;12.542;2023-07-09T07:44:40;31.80;1.00
1476;DHT22;730;48.870;12.542;2023-07-09T07:47:06;32.00;1.00
1476;DHT22;730;48.870;12.542;2023-07-09T07:49:32;32.20;1.00
1476;DHT22;730;48.870;12.542;2023-07-09T07:51:58;32.40;1.00
1476;DHT22;730;48.870;12.542;2023-07-09T07:54:24;32.50;1.00
1476;DHT22;730;48.870;12.542;2023-07-09T07:56:50;32.70;1.00
1476;DHT22;730;48.870;12.542;2023-07-09T07:59:17;32.90;1.00
1476;DHT22;730;48.870;12.542;2023-07-09T08:01:43;33.00;1.00
1476;DHT22;730;48.870;12.542;2023-07-09T08:04:09;33.10;1.00
1476;DHT22;730;48.870;12.542;2023-07-09T08:06:35;33.20;1.00
1476;DHT22;730;48.870;12.542;2023-07-09T08:09:02;33.30;1.00
1476;DHT22;730;48.870;12.542;2023-07-09T08:11:28;33.40;1.00
1476;DHT22;730;48.870;12.542;2023-07-09T08:13:55;33.40;1.00
1476;DHT22;730;48.870;12.542;2023-07-09T08:16:21;33.50;1.00
1476;DHT22;730;48.870;12.542;2023-07-09T08:18:48;33.60;1.00
1476;DHT22;730;48.870;12.542;2023-07-09T08:21:14;33.70;1.00
1476;DHT22;730;48.870;12.542;2023-07-09T08:23:40;33.80;1.00
1476;DHT22;730;48.870;12.542;2023-07-09T08:26:06;33.80;1.00
1476;DHT22;730;48.870;12.542;2023-07-09T08:28:33;33.90;1.00
1476;DHT22;730;48.870;12.542;2023-07-09T08:31:00;34.00;1.00
1476;DHT22;730;48.870;12.542;2023-07-09T08:33:26;34.00;1.00
1476;DHT22;730;48.870;12.542;2023-07-09T08:35:53;34.10;1.00
1476;DHT22;730;48.870;12.542;2023-07-09T08:38:20;34.20;1.00
1476;DHT22;730;48.870;12.542;2023-07-09T08:49:23;34.70;1.00
1476;DHT22;730;48.870;12.542;2023-07-09T08:51:53;34.80;1.00
1476;DHT22;730;48.870;12.542;2023-07-09T08:54:31;34.80;1.00
1476;DHT22;730;48.870;12.542;2023-07-09T08:57:02;34.90;1.00
1476;DHT22;730;48.870;12.542;2023-07-09T08:59:31;35.00;1.00
1476;DHT22;730;48.870;12.542;2023-07-09T09:01:59;35.00;1.00
1476;DHT22;730;48.870;12.542;2023-07-09T09:04:31;35.10;1.00
1476;DHT22;730;48.870;12.542;2023-07-09T09:09:36;35.40;1.00
1476;DHT22;730;48.870;12.542;2023-07-09T09:12:17;35.50;1.00
1476;DHT22;730;48.870;12.542;2023-07-09T09:14:50;35.70;1.00
1476;DHT22;730;48.870;12.542;2023-07-09T09:17:20;35.80;1.00
1476;DHT22;730;48.870;12.542;2023-07-09T09:19:55;35.90;1.00
1476;DHT22;730;48.870;12.542;2023-07-09T09:22:29;36.00;1.00
1476;DHT22;730;48.870;12.542;2023-07-09T09:25:15;36.00;1.00
1476;DHT22;730;48.870;12.542;2023-07-09T09:27:43;36.30;1.00
1476;DHT22;730;48.870;12.542;2023-07-09T09:30:14;36.40;1.00
1476;DHT22;730;48.870;12.542;2023-07-09T09:32:44;36.50;1.00
1476;DHT22;730;48.870;12.542;2023-07-09T09:35:16;36.70;1.00
1476;DHT22;730;48.870;12.542;2023-07-09T09:37:49;36.80;1.00
1476;DHT22;730;48.870;12.542;2023-07-09T09:40:18;36.90;1.00
1476;DHT22;730;48.870;12.542;2023-07-09T09:42:48;36.90;1.00
1476;DHT22;730;48.870;12.542;2023-07-09T09:45:27;37.10;1.00
1476;DHT22;730;48.870;12.542;2023-07-09T09:47:59;37.30;1.00
1476;DHT22;730;48.870;12.542;2023-07-09T09:50:30;37.40;1.00
1476;DHT22;730;48.870;12.542;2023-07-09T09:52:57;37.50;1.00
1476;DHT22;730;48.870;12.542;2023-07-09T09:55:28;37.60;1.00
1476;DHT22;730;48.870;12.542;2023-07-09T09:57:55;37.40;1.00
1476;DHT22;730;48.870;12.542;2023-07-09T10:00:24;37.40;1.00
1476;DHT22;730;48.870;12.542;2023-07-09T10:02:57;37.40;1.00
1476;DHT22;730;48.870;12.542;2023-07-09T10:05:38;37.50;1.00
1476;DHT22;730;48.870;12.542;2023-07-09T10:08:09;37.60;1.00
1476;DHT22;730;48.870;12.542;2023-07-09T10:10:39;37.70;1.00
1476;DHT22;730;48.870;12.542;2023-07-09T10:13:28;37.70;1.00
1476;DHT22;730;48.870;12.542;2023-07-09T10:18:53;37.90;1.00
1476;DHT22;730;48.870;12.542;2023-07-09T10:21:47;37.90;1.00
1476;DHT22;730;48.870;12.542;2023-07-09T10:27:23;38.00;1.00
1476;DHT22;730;48.870;12.542;2023-07-09T10:30:01;38.10;1.00
1476;DHT22;730;48.870;12.542;2023-07-09T10:41:35;38.10;1.00
1476;DHT22;730;48.870;12.542;2023-07-09T10:44:10;38.20;1.00
1476;DHT22;730;48.870;12.542;2023-07-09T10:46:39;38.20;1.00
1476;DHT22;730;48.870;12.542;2023-07-09T10:49:13;38.20;1.00
1476;DHT22;730;48.870;12.542;2023-07-09T10:51:43;38.30;1.00
1476;DHT22;730;48.870;12.542;2023-07-09T10:54:28;38.40;1.00
1476;DHT22;730;48.870;12.542;2023-07-09T10:57:02;38.50;1.00
1476;DHT22;730;48.870;12.542;2023-07-09T10:59:32;38.60;1.00
1476;DHT22;730;48.870;12.542;2023-07-09T11:02:20;38.70;1.00
1476;DHT22;730;48.870;12.542;2023-07-09T11:04:56;38.70;1.00
1476;DHT22;730;48.870;12.542;2023-07-09T11:10:05;38.70;1.00
1476;DHT22;730;48.870;12.542;2023-07-09T11:12:40;38.60;1.00
1476;DHT22;730;48.870;12.542;2023-07-09T11:15:17;38.60;1.00
1476;DHT22;730;48.870;12.542;2023-07-09T11:17:46;38.70;1.00
1476;DHT22;730;48.870;12.542;2023-07-09T11:20:30;38.80;1.00
1476;DHT22;730;48.870;12.542;2023-07-09T11:23:06;38.80;1.00
1476;DHT22;730;48.870;12.542;2023-07-09T11:25:44;38.90;1.00
1476;DHT22;730;48.870;12.542;2023-07-09T11:28:11;38.90;1.00
1476;DHT22;730;48.870;12.542;2023-07-09T11:30:54;39.10;1.00
1476;DHT22;730;48.870;12.542;2023-07-09T11:33:30;39.20;1.00
1476;DHT22;730;48.870;12.542;2023-07-09T11:36:13;39.30;1.00
1476;DHT22;730;48.870;12.542;2023-07-09T11:38:43;39.40;1.00
1476;DHT22;730;48.870;12.542;2023-07-09T11:41:27;39.60;1.00
1476;DHT22;730;48.870;12.542;2023-07-09T11:44:21;39.60;1.00
1476;DHT22;730;48.870;12.542;2023-07-09T11:47:19;39.30;1.00
1476;DHT22;730;48.870;12.542;2023-07-09T11:49:54;39.00;1.00
1476;DHT22;730;48.870;12.542;2023-07-09T11:52:41;39.00;1.00
1476;DHT22;730;48.870;12.542;2023-07-09T11:55:28;39.00;1.00
1476;DHT22;730;48.870;12.542;2023-07-09T11:58:00;39.10;1.00
1476;DHT22;730;48.870;12.542;2023-07-09T12:00:50;39.20;1.00
1476;DHT22;730;48.870;12.542;2023-07-09T12:03:23;39.10;1.00
1476;DHT22;730;48.870;12.542;2023-07-09T12:05:52;39.20;1.00
1476;DHT22;730;48.870;12.542;2023-07-09T12:08:24;39.40;1.00
1476;DHT22;730;48.870;12.542;2023-07-09T12:10:53;39.50;1.00
1476;DHT22;730;48.870;12.542;2023-07-09T12:13:19;39.20;1.00
1476;DHT22;730;48.870;12.542;2023-07-09T12:15:46;39.10;1.00
1476;DHT22;730;48.870;12.542;2023-07-09T12:18:14;39.10;1.00
1476;DHT22;730;48.870;12.542;2023-07-09T12:20:47;39.20;1.00
1476;DHT22;730;48.870;12.542;2023-07-09T12:25:50;38.70;1.00
1476;DHT22;730;48.870;12.542;2023-07-09T12:28:17;38.80;1.00
1476;DHT22;730;48.870;12.542;2023-07-09T12:30:48;39.00;1.00
1476;DHT22;730;48.870;12.542;2023-07-09T12:33:26;39.20;1.00
1476;DHT22;730;48.870;12.542;2023-07-09T12:36:04;39.40;1.00
1476;DHT22;730;48.870;12.542;2023-07-09T12:38:40;39.60;1.00
1476;DHT22;730;48.870;12.542;2023-07-09T12:43:46;39.90;1.00
1476;DHT22;730;48.870;12.542;2023-07-09T12:46:13;40.00;1.00
1476;DHT22;730;48.870;12.542;2023-07-09T12:48:39;40.10;1.00
1476;DHT22;730;48.870;12.542;2023-07-09T12:51:08;40.30;1.00
1476;DHT22;730;48.870;12.542;2023-07-09T12:53:36;40.50;1.00
1476;DHT22;730;48.870;12.542;2023-07-09T12:56:03;40.70;1.00
1476;DHT22;730;48.870;12.542;2023-07-09T12:58:37;40.90;1.00
1476;DHT22;730;48.870;12.542;2023-07-09T13:01:17;41.20;1.00
1476;DHT22;730;48.870;12.542;2023-07-09T13:03:54;41.40;1.00
1476;DHT22;730;48.870;12.542;2023-07-09T13:06:38;41.70;1.00
1476;DHT22;730;48.870;12.542;2023-07-09T13:09:19;41.90;1.00
1476;DHT22;730;48.870;12.542;2023-07-09T13:11:46;41.90;1.00
1476;DHT22;730;48.870;12.542;2023-07-09T13:14:19;42.00;1.00
1476;DHT22;730;48.870;12.542;2023-07-09T13:16:47;42.00;1.00
1476;DHT22;730;48.870;12.542;2023-07-09T13:19:14;42.20;1.00
1476;DHT22;730;48.870;12.542;2023-07-09T13:21:40;42.20;1.00
1476;DHT22;730;48.870;12.542;2023-07-09T13:24:22;42.30;1.00
1476;DHT22;730;48.870;12.542;2023-07-09T13:26:50;42.40;1.00
1476;DHT22;730;48.870;12.542;2023-07-09T13:29:19;42.40;1.00
1476;DHT22;730;48.870;12.542;2023-07-09T13:31:45;42.50;1.00
1476;DHT22;730;48.870;12.542;2023-07-09T13:34:22;42.60;1.00
1476;DHT22;730;48.870;12.542;2023-07-09T13:36:50;42.50;1.00
1476;DHT22;730;48.870;12.542;2023-07-09T13:39:17;42.60;1.00
1476;DHT22;730;48.870;12.542;2023-07-09T13:41:44;42.70;1.00
1476;DHT22;730;48.870;12.542;2023-07-09T13:44:14;43.00;1.00
1476;DHT22;730;48.870;12.542;2023-07-09T13:46:41;43.30;1.00
1476;DHT22;730;48.870;12.542;2023-07-09T13:49:11;43.70;1.00
1476;DHT22;730;48.870;12.542;2023-07-09T13:51:40;44.10;1.00
1476;DHT22;730;48.870;12.542;2023-07-09T13:54:26;44.30;1.00
1476;DHT22;730;48.870;12.542;2023-07-09T13:56:53;44.70;1.00
1476;DHT22;730;48.870;12.542;2023-07-09T13:59:21;45.00;1.00
1476;DHT22;730;48.870;12.542;2023-07-09T14:01:54;45.20;1.00
1476;DHT22;730;48.870;12.542;2023-07-09T14:04:21;45.60;1.00
1476;DHT22;730;48.870;12.542;2023-07-09T14:06:47;45.70;1.00
1476;DHT22;730;48.870;12.542;2023-07-09T14:09:14;45.60;1.00
1476;DHT22;730;48.870;12.542;2023-07-09T14:11:45;45.60;1.00
1476;DHT22;730;48.870;12.542;2023-07-09T14:14:30;45.90;1.00
1476;DHT22;730;48.870;12.542;2023-07-09T14:16:56;46.00;1.00
1476;DHT22;730;48.870;12.542;2023-07-09T14:19:24;46.20;1.00
1476;DHT22;730;48.870;12.542;2023-07-09T14:21:51;45.90;1.00
1476;DHT22;730;48.870;12.542;2023-07-09T14:24:26;46.10;1.00
1476;DHT22;730;48.870;12.542;2023-07-09T14:26:54;46.50;1.00
1476;DHT22;730;48.870;12.542;2023-07-09T14:29:21;47.10;1.00
1476;DHT22;730;48.870;12.542;2023-07-09T14:31:48;47.60;1.00
1476;DHT22;730;48.870;12.542;2023-07-09T14:34:25;48.10;1.00
1476;DHT22;730;48.870;12.542;2023-07-09T14:36:54;48.10;1.00
1476;DHT22;730;48.870;12.542;2023-07-09T14:39:21;48.10;1.00
1476;DHT22;730;48.870;12.542;2023-07-09T14:41:47;47.80;1.00
1476;DHT22;730;48.870;12.542;2023-07-09T14:44:31;47.20;1.00
1476;DHT22;730;48.870;12.542;2023-07-09T14:46:59;46.70;1.00
1476;DHT22;730;48.870;12.542;2023-07-09T14:49:26;46.10;1.00
1476;DHT22;730;48.870;12.542;2023-07-09T14:51:57;45.60;1.00
1476;DHT22;730;48.870;12.542;2023-07-09T14:54:27;45.00;1.00
1476;DHT22;730;48.870;12.542;2023-07-09T14:56:56;44.70;1.00
1476;DHT22;730;48.870;12.542;2023-07-09T14:59:23;44.50;1.00
1476;DHT22;730;48.870;12.542;2023-07-09T15:01:50;44.40;1.00
1476;DHT22;730;48.870;12.542;2023-07-09T15:04:31;44.20;1.00
1476;DHT22;730;48.870;12.542;2023-07-09T15:06:58;44.20;1.00
1476;DHT22;730;48.870;12.542;2023-07-09T15:09:26;44.00;1.00
1476;DHT22;730;48.870;12.542;2023-07-09T15:11:58;43.90;1.00
1476;DHT22;730;48.870;12.542;2023-07-09T15:14:26;43.80;1.00
1476;DHT22;730;48.870;12.542;2023-07-09T15:16:52;43.50;1.00
1476;DHT22;730;48.870;12.542;2023-07-09T15:19:22;43.20;1.00
1476;DHT22;730;48.870;12.542;2023-07-09T15:21:49;42.90;1.00
1476;DHT22;730;48.870;12.542;2023-07-09T15:24:20;42.60;1.00
1476;DHT22;730;48.870;12.542;2023-07-09T15:26:50;42.30;1.00
1476;DHT22;730;48.870;12.542;2023-07-09T15:29:18;41.90;1.00
1476;DHT22;730;48.870;12.542;2023-07-09T15:31:45;41.70;1.00
1476;DHT22;730;48.870;12.542;2023-07-09T15:34:11;41.40;1.00
1476;DHT22;730;48.870;12.542;2023-07-09T15:36:38;41.30;1.00
1476;DHT22;730;48.870;12.542;2023-07-09T15:39:04;41.00;1.00
1476;DHT22;730;48.870;12.542;2023-07-09T15:41:30;40.80;1.00
1476;DHT22;730;48.870;12.542;2023-07-09T15:43:56;40.60;1.00
1476;DHT22;730;48.870;12.542;2023-07-09T15:46:23;40.40;1.00
1476;DHT22;730;48.870;12.542;2023-07-09T15:48:50;40.10;1.00
1476;DHT22;730;48.870;12.542;2023-07-09T15:51:18;40.00;1.00
1476;DHT22;730;48.870;12.542;2023-07-09T15:53:44;39.80;1.00
1476;DHT22;730;48.870;12.542;2023-07-09T15:56:30;39.70;1.00
1476;DHT22;730;48.870;12.542;2023-07-09T15:58:59;39.40;1.00
1476;DHT22;730;48.870;12.542;2023-07-09T16:01:27;39.30;1.00
1476;DHT22;730;48.870;12.542;2023-07-09T16:04:00;39.10;1.00
1476;DHT22;730;48.870;12.542;2023-07-09T16:06:28;38.90;1.00
1476;DHT22;730;48.870;12.542;2023-07-09T16:08:54;38.80;1.00
1476;DHT22;730;48.870;12.542;2023-07-09T16:11:22;38.70;1.00
1476;DHT22;730;48.870;12.542;2023-07-09T16:13:50;38.60;1.00
1476;DHT22;730;48.870;12.542;2023-07-09T16:16:19;38.50;1.00
1476;DHT22;730;48.870;12.542;2023-07-09T16:18:47;38.40;1.00
1476;DHT22;730;48.870;12.542;2023-07-09T16:23:52;38.20;1.00
1476;DHT22;730;48.870;12.542;2023-07-09T16:26:18;38.10;1.00
1476;DHT22;730;48.870;12.542;2023-07-09T16:28:44;38.00;1.00
1476;DHT22;730;48.870;12.542;2023-07-09T16:31:10;38.00;1.00
1476;DHT22;730;48.870;12.542;2023-07-09T16:33:36;37.90;1.00
1476;DHT22;730;48.870;12.542;2023-07-09T16:36:03;37.80;1.00
1476;DHT22;730;48.870;12.542;2023-07-09T16:38:31;37.70;1.00
1476;DHT22;730;48.870;12.542;2023-07-09T16:40:58;37.60;1.00
1476;DHT22;730;48.870;12.542;2023-07-09T16:43:25;37.60;1.00
1476;DHT22;730;48.870;12.542;2023-07-09T16:45:51;37.40;1.00
1476;DHT22;730;48.870;12.542;2023-07-09T16:48:19;37.30;1.00
1476;DHT22;730;48.870;12.542;2023-07-09T16:50:48;37.10;1.00
1476;DHT22;730;48.870;12.542;2023-07-09T16:53:16;37.00;1.00
1476;DHT22;730;48.870;12.542;2023-07-09T16:55:43;36.90;1.00
1476;DHT22;730;48.870;12.542;2023-07-09T17:00:46;36.80;1.00
1476;DHT22;730;48.870;12.542;2023-07-09T17:03:13;36.80;1.00
1476;DHT22;730;48.870;12.542;2023-07-09T17:05:39;36.70;1.00
1476;DHT22;730;48.870;12.542;2023-07-09T17:08:05;36.70;1.00
1476;DHT22;730;48.870;12.542;2023-07-09T17:10:31;36.70;1.00
1476;DHT22;730;48.870;12.542;2023-07-09T17:13:00;36.60;1.00
1476;DHT22;730;48.870;12.542;2023-07-09T17:15:28;36.60;1.00
1476;DHT22;730;48.870;12.542;2023-07-09T17:17:57;36.60;1.00